Time;durP1;ratioP1;P1;durP2;ratioP2;P2;SDS_P1;SDS_P2;PMS_P1;PMS_P2;Temp;Humidity;BMP_temperature;BMP_pressure;BME280_temperature;BME280_humidity;BME280_pressure;Samples;Min_cycle;Max_cycle;Signal;HPM_P1;HPM_P2
2022/11/09 00:02:11;;;;;;;0.40;0.40;;;9.70;99.90;;;;;;5034910;28;20173;-69
2022/11/09 00:04:37;;;;;;;0.70;0.67;;;9.70;99.90;;;;;;5033047;28;20225;-70
2022/11/09 00:07:03;;;;;;;0.70;0.70;;;9.70;99.90;;;;;;5033577;28;20171;-70
2022/11/09 00:09:28;;;;;;;0.47;0.47;;;9.70;99.90;;;;;;5034327;28;20425;-67
2022/11/09 00:11:54;;;;;;;2.00;0.50;;;9.80;99.90;;;;;;5034837;28;20170;-71
2022/11/09 00:14:20;;;;;;;0.50;0.50;;;9.90;99.90;;;;;;5034936;28;20175;-68
2022/11/09 00:16:45;;;;;;;1.10;1.00;;;9.90;99.90;;;;;;5034957;28;20639;-69
2022/11/09 00:19:14;;;;;;;0.60;0.60;;;9.80;99.90;;;;;;5035021;28;20190;-70
2022/11/09 00:21:40;;;;;;;2.08;1.98;;;9.80;99.90;;;;;;5035111;28;20163;-70
2022/11/09 00:24:05;;;;;;;0.70;0.70;;;9.90;99.90;;;;;;5016950;28;20681;-68
2022/11/09 00:26:31;;;;;;;0.67;0.67;;;9.90;99.90;;;;;;5034962;28;20159;-70
2022/11/09 00:28:57;;;;;;;0.57;0.57;;;10.10;99.90;;;;;;5034801;28;20198;-70
2022/11/09 00:31:24;;;;;;;0.80;0.80;;;10.20;99.90;;;;;;5034772;28;20167;-71
2022/11/09 00:33:51;;;;;;;0.40;0.40;;;10.20;99.90;;;;;;5034426;28;20166;-68
2022/11/09 00:36:18;;;;;;;0.45;0.45;;;10.20;99.90;;;;;;5034748;28;20758;-70
2022/11/09 00:38:48;;;;;;;0.40;0.40;;;10.20;99.90;;;;;;5034314;28;20282;-71
2022/11/09 00:41:14;;;;;;;0.57;0.50;;;10.30;99.90;;;;;;5016820;28;20182;-69
2022/11/09 00:43:40;;;;;;;0.57;0.57;;;10.30;99.90;;;;;;5034296;28;20171;-69
2022/11/09 00:46:06;;;;;;;0.80;0.80;;;10.40;99.90;;;;;;5034456;28;20452;-71
2022/11/09 00:48:32;;;;;;;0.60;0.60;;;10.50;99.90;;;;;;5034383;28;20640;-71
2022/11/09 00:50:59;;;;;;;0.40;0.40;;;10.50;99.90;;;;;;5034295;28;20224;-70
2022/11/09 00:53:25;;;;;;;1.08;0.82;;;10.50;99.90;;;;;;5034258;28;20628;-69
2022/11/09 00:56:03;;;;;;;2.72;1.83;;;10.50;99.90;;;;;;5035149;28;20202;-72
2022/11/09 00:58:32;;;;;;;0.70;0.70;;;10.50;99.90;;;;;;5033293;28;20210;-68
2022/11/09 01:00:59;;;;;;;1.05;1.05;;;10.50;99.90;;;;;;5034251;28;20175;-70
2022/11/09 01:03:26;;;;;;;0.47;0.47;;;10.50;99.90;;;;;;5034032;28;20171;-71
2022/11/09 01:05:52;;;;;;;0.50;0.50;;;10.50;99.90;;;;;;5034183;28;20206;-69
2022/11/09 01:08:18;;;;;;;0.57;0.57;;;10.50;99.90;;;;;;5034056;28;20206;-68
2022/11/09 01:10:47;;;;;;;0.73;0.60;;;10.70;99.90;;;;;;5033997;28;20944;-70
2022/11/09 01:13:15;;;;;;;1.70;1.05;;;10.70;99.90;;;;;;5033718;28;20221;-69
2022/11/09 01:15:43;;;;;;;0.93;0.93;;;10.80;99.90;;;;;;5034105;28;20597;-68
2022/11/09 01:18:09;;;;;;;0.60;0.60;;;10.80;99.90;;;;;;5033758;28;20202;-68
2022/11/09 01:20:39;;;;;;;0.93;0.70;;;10.90;99.90;;;;;;5033797;28;20162;-69
2022/11/09 01:23:04;;;;;;;0.82;0.50;;;10.90;99.90;;;;;;5033854;28;20432;-70
2022/11/09 01:25:30;;;;;;;0.40;0.40;;;10.90;99.90;;;;;;5033774;28;20257;-69
2022/11/09 01:27:58;;;;;;;0.53;0.53;;;10.80;99.90;;;;;;5033729;28;20175;-69
2022/11/09 01:30:24;;;;;;;0.85;0.60;;;10.90;99.90;;;;;;5033784;28;20647;-71
2022/11/09 01:32:49;;;;;;;0.40;0.40;;;11.00;99.90;;;;;;5033642;28;20187;-70
2022/11/09 01:35:15;;;;;;;0.93;0.93;;;11.00;99.90;;;;;;5033787;28;20174;-68
2022/11/09 01:37:41;;;;;;;0.30;0.30;;;11.00;99.90;;;;;;5033582;28;20282;-71
2022/11/09 01:40:07;;;;;;;0.40;0.40;;;10.90;99.90;;;;;;5033517;28;20199;-69
2022/11/09 01:42:36;;;;;;;1.35;0.50;;;10.90;99.90;;;;;;5033909;28;20171;-71
2022/11/09 01:45:16;;;;;;;0.50;0.50;;;10.90;99.90;;;;;;5033311;28;20197;-71
2022/11/09 01:47:48;;;;;;;0.30;0.30;;;10.80;99.90;;;;;;5033547;28;20619;-69
2022/11/09 01:50:17;;;;;;;1.02;1.02;;;10.80;99.90;;;;;;5033947;28;20591;-68
2022/11/09 01:52:47;;;;;;;0.30;0.30;;;10.90;99.90;;;;;;5033313;28;20167;-71
2022/11/09 01:55:20;;;;;;;0.40;0.40;;;10.90;99.90;;;;;;5033596;28;20174;-71
2022/11/09 01:58:02;;;;;;;0.52;0.47;;;11.10;99.90;;;;;;5033434;28;20646;-68
2022/11/09 02:00:29;;;;;;;0.40;0.40;;;11.00;99.90;;;;;;5033610;28;20178;-70
2022/11/09 02:02:59;;;;;;;0.30;0.30;;;11.00;99.90;;;;;;5033187;28;20529;-70
2022/11/09 02:05:28;;;;;;;0.30;0.30;;;11.00;99.90;;;;;;5033368;28;20167;-69
2022/11/09 02:07:55;;;;;;;0.70;0.50;;;11.20;99.90;;;;;;5033381;28;20179;-70
2022/11/09 02:10:29;;;;;;;2.45;1.70;;;11.10;99.90;;;;;;5035772;28;20186;-68
2022/11/09 02:12:57;;;;;;;1.55;1.45;;;11.00;99.90;;;;;;5037394;28;20622;-69
2022/11/09 02:15:23;;;;;;;0.40;0.40;;;11.00;99.90;;;;;;5037212;28;20186;-69
2022/11/09 02:17:51;;;;;;;0.50;0.50;;;10.80;99.90;;;;;;5037119;28;20202;-70
2022/11/09 02:20:18;;;;;;;0.60;0.60;;;11.00;99.90;;;;;;5037164;28;20619;-68
2022/11/09 02:22:44;;;;;;;0.40;0.40;;;11.00;99.90;;;;;;5036987;28;20182;-69
2022/11/09 02:25:11;;;;;;;0.40;0.40;;;11.10;99.90;;;;;;5037152;28;20171;-71
2022/11/09 02:27:38;;;;;;;1.63;0.68;;;11.10;99.90;;;;;;5036992;28;20171;-70
2022/11/09 02:30:05;;;;;;;0.50;0.50;;;11.10;99.90;;;;;;5036883;28;20186;-71
2022/11/09 02:32:31;;;;;;;0.52;0.52;;;11.20;99.90;;;;;;5036961;28;20546;-69
2022/11/09 02:34:57;;;;;;;0.37;0.37;;;11.30;99.90;;;;;;5036798;28;20181;-69
2022/11/09 02:37:28;;;;;;;0.30;0.30;;;11.30;99.90;;;;;;5036747;28;20191;-69
2022/11/09 02:39:57;;;;;;;0.40;0.40;;;11.30;99.90;;;;;;5036733;28;20195;-70
2022/11/09 02:42:23;;;;;;;0.40;0.40;;;11.20;99.90;;;;;;5036749;28;20656;-69
2022/11/09 02:44:55;;;;;;;0.40;0.40;;;11.30;99.90;;;;;;5036602;28;20206;-70
2022/11/09 02:47:21;;;;;;;0.50;0.50;;;11.40;99.90;;;;;;5036817;28;20221;-68
2022/11/09 02:49:46;;;;;;;0.47;0.47;;;11.30;99.90;;;;;;5036530;28;20693;-70
2022/11/09 02:52:12;;;;;;;0.30;0.30;;;11.00;99.90;;;;;;5036749;28;20796;-72
2022/11/09 02:54:38;;;;;;;0.40;0.40;;;10.90;99.90;;;;;;5036288;28;20207;-70
2022/11/09 02:57:04;;;;;;;0.80;0.80;;;11.00;99.90;;;;;;5036415;28;20930;-70
2022/11/09 02:59:29;;;;;;;0.73;0.73;;;11.10;99.90;;;;;;5036391;28;20189;-68
2022/11/09 03:01:55;;;;;;;0.70;0.70;;;11.00;99.90;;;;;;5036469;28;20167;-69
2022/11/09 03:04:20;;;;;;;0.40;0.40;;;11.00;99.90;;;;;;5036412;28;20678;-69
2022/11/09 03:06:46;;;;;;;0.40;0.40;;;11.00;99.90;;;;;;5036412;28;20170;-68
2022/11/09 03:09:12;;;;;;;1.17;1.17;;;11.00;99.90;;;;;;5036444;28;20195;-69
2022/11/09 03:11:39;;;;;;;0.75;0.75;;;11.10;99.90;;;;;;5036081;28;20159;-69
2022/11/09 03:14:05;;;;;;;0.40;0.40;;;11.10;99.90;;;;;;5036187;28;20258;-69
2022/11/09 03:16:31;;;;;;;0.53;0.53;;;11.10;99.90;;;;;;5018224;28;20305;-69
2022/11/09 03:18:57;;;;;;;0.80;0.80;;;11.10;99.90;;;;;;5036207;28;20781;-69
2022/11/09 03:21:23;;;;;;;0.40;0.40;;;11.20;99.90;;;;;;5035155;28;20583;-71
2022/11/09 03:23:49;;;;;;;0.60;0.60;;;11.20;99.90;;;;;;5036397;28;20190;-70
2022/11/09 03:26:16;;;;;;;0.70;0.50;;;11.10;99.90;;;;;;5036168;28;20171;-71
2022/11/09 03:28:41;;;;;;;1.30;0.80;;;11.10;99.90;;;;;;5035797;28;20194;-68
2022/11/09 03:31:08;;;;;;;0.97;0.57;;;11.10;99.90;;;;;;5035836;28;20178;-70
2022/11/09 03:33:34;;;;;;;0.63;0.63;;;11.10;99.90;;;;;;5035825;28;20167;-69
2022/11/09 03:36:00;;;;;;;0.80;0.80;;;11.10;99.90;;;;;;5017823;28;20246;-68
2022/11/09 03:38:25;;;;;;;0.40;0.40;;;11.20;99.90;;;;;;5035478;28;20211;-68
2022/11/09 03:40:51;;;;;;;1.17;0.70;;;11.20;99.90;;;;;;5035693;28;20882;-70
2022/11/09 03:43:17;;;;;;;0.80;0.80;;;11.20;99.90;;;;;;5035425;28;20651;-70
2022/11/09 03:45:43;;;;;;;0.40;0.40;;;11.20;99.90;;;;;;5035715;28;20237;-70
2022/11/09 03:48:08;;;;;;;0.70;0.70;;;11.30;99.90;;;;;;5035659;28;20453;-68
2022/11/09 03:50:35;;;;;;;0.60;0.50;;;11.30;99.90;;;;;;5035437;28;20410;-70
2022/11/09 03:53:01;;;;;;;0.50;0.50;;;11.30;99.90;;;;;;5035241;28;20250;-67
2022/11/09 03:55:27;;;;;;;0.30;0.30;;;11.30;99.90;;;;;;5035613;28;20170;-69
2022/11/09 03:57:53;;;;;;;0.67;0.67;;;11.30;99.90;;;;;;5035429;28;20679;-69
2022/11/09 04:00:21;;;;;;;3.43;1.50;;;11.30;99.90;;;;;;5035307;28;20438;-70
2022/11/09 04:02:47;;;;;;;0.65;0.60;;;11.30;99.90;;;;;;5035385;28;20409;-70
2022/11/09 04:05:14;;;;;;;0.40;0.40;;;11.30;99.90;;;;;;5035191;28;20252;-70
2022/11/09 04:07:44;;;;;;;0.50;0.50;;;11.30;99.90;;;;;;5035183;28;20398;-70
2022/11/09 04:10:10;;;;;;;0.30;0.30;;;11.40;99.90;;;;;;5035480;28;20170;-71
2022/11/09 04:12:36;;;;;;;0.50;0.50;;;11.40;99.90;;;;;;5035174;28;20631;-71
2022/11/09 04:15:01;;;;;;;0.83;0.83;;;11.40;99.90;;;;;;5034748;28;20175;-71
2022/11/09 04:17:27;;;;;;;0.40;0.40;;;11.30;99.90;;;;;;5035072;28;20191;-71
2022/11/09 04:19:53;;;;;;;0.80;0.50;;;11.40;99.90;;;;;;5034810;28;20195;-68
2022/11/09 04:22:18;;;;;;;0.60;0.60;;;11.50;99.90;;;;;;5034852;28;20605;-71
2022/11/09 04:24:44;;;;;;;0.60;0.60;;;11.40;99.90;;;;;;5034817;28;20249;-70
2022/11/09 04:27:09;;;;;;;0.30;0.30;;;11.50;99.90;;;;;;5034871;28;20173;-70
2022/11/09 04:29:35;;;;;;;0.60;0.60;;;11.50;99.90;;;;;;5034644;28;20659;-71
2022/11/09 04:32:01;;;;;;;0.43;0.43;;;11.50;99.90;;;;;;5034796;28;20163;-69
2022/11/09 04:34:26;;;;;;;0.50;0.50;;;11.50;99.90;;;;;;5034429;28;20178;-70
2022/11/09 04:36:52;;;;;;;0.60;0.60;;;11.50;99.90;;;;;;5034516;28;20198;-68
2022/11/09 04:39:17;;;;;;;0.83;0.60;;;11.60;99.90;;;;;;5016743;28;20705;-71
2022/11/09 04:41:43;;;;;;;0.50;0.50;;;11.50;99.90;;;;;;5034717;28;20169;-69
2022/11/09 04:44:09;;;;;;;0.97;0.97;;;11.50;99.90;;;;;;5034390;28;20171;-70
2022/11/09 04:46:34;;;;;;;0.40;0.40;;;11.60;99.90;;;;;;5034696;28;20528;-68
2022/11/09 04:49:00;;;;;;;2.00;0.93;;;11.50;99.90;;;;;;5034287;28;20187;-70
2022/11/09 04:51:25;;;;;;;1.17;0.97;;;11.60;99.90;;;;;;5034329;28;20170;-67
2022/11/09 04:53:51;;;;;;;0.43;0.43;;;11.60;99.90;;;;;;5034155;28;20173;-71
2022/11/09 04:56:17;;;;;;;0.40;0.40;;;11.70;99.90;;;;;;5034477;28;20163;-69
2022/11/09 04:58:42;;;;;;;0.40;0.40;;;11.60;99.90;;;;;;5034202;28;20555;-71
2022/11/09 05:01:13;;;;;;;0.40;0.40;;;11.60;99.90;;;;;;5034365;28;20201;-70
2022/11/09 05:03:39;;;;;;;0.30;0.30;;;11.60;99.90;;;;;;5033802;28;20540;-68
2022/11/09 05:06:30;;;;;;;0.83;0.83;;;11.60;99.90;;;;;;5034040;28;20401;-69
2022/11/09 05:08:54;;;;;;;1.00;0.90;;;11.60;99.90;;;;;;5033740;28;20437;-70
2022/11/09 05:11:21;;;;;;;0.40;0.40;;;11.60;99.90;;;;;;5034014;28;20409;-71
2022/11/09 05:13:46;;;;;;;1.58;0.50;;;11.70;99.90;;;;;;5033803;28;20425;-71
2022/11/09 05:16:12;;;;;;;0.50;0.40;;;11.70;99.90;;;;;;5016248;28;20190;-68
2022/11/09 05:18:38;;;;;;;1.10;1.00;;;11.80;99.90;;;;;;5034052;28;20266;-69
2022/11/09 05:21:04;;;;;;;0.40;0.40;;;11.80;99.90;;;;;;5034046;28;20495;-68
2022/11/09 05:26:14;;;;;;;0.60;0.60;;;11.70;99.90;;;;;;5033984;28;20416;-69
2022/11/09 05:28:40;;;;;;;0.40;0.40;;;11.70;99.90;;;;;;5033828;28;20430;-69
2022/11/09 05:31:06;;;;;;;1.00;1.00;;;11.80;99.90;;;;;;5033690;28;20178;-69
2022/11/09 05:33:32;;;;;;;0.30;0.30;;;11.80;99.90;;;;;;5033687;28;20874;-68
2022/11/09 05:35:58;;;;;;;0.77;0.77;;;11.80;99.90;;;;;;5033753;28;20467;-71
2022/11/09 05:38:24;;;;;;;1.47;0.97;;;11.80;99.90;;;;;;5033409;28;20245;-69
2022/11/09 05:40:50;;;;;;;0.40;0.40;;;11.90;99.90;;;;;;5033568;28;20167;-71
2022/11/09 05:43:17;;;;;;;0.40;0.40;;;11.90;99.90;;;;;;5033496;28;20509;-69
2022/11/09 05:45:43;;;;;;;0.87;0.87;;;11.90;99.90;;;;;;5033468;28;20418;-70
2022/11/09 05:48:10;;;;;;;0.30;0.30;;;11.90;99.90;;;;;;5033402;28;20516;-70
2022/11/09 05:50:36;;;;;;;0.53;0.53;;;11.90;99.90;;;;;;5033458;28;20786;-71
2022/11/09 05:53:02;;;;;;;0.73;0.73;;;11.90;99.90;;;;;;5033386;28;20405;-71
2022/11/09 05:55:28;;;;;;;1.03;0.93;;;12.00;99.90;;;;;;5033602;28;20971;-71
2022/11/09 05:57:54;;;;;;;4.00;0.90;;;12.20;99.90;;;;;;5033343;28;20206;-67
2022/11/09 06:00:21;;;;;;;0.93;0.73;;;12.00;99.90;;;;;;5033358;28;20179;-71
2022/11/09 06:02:46;;;;;;;0.60;0.60;;;11.90;99.90;;;;;;5033255;28;20488;-68
2022/11/09 06:05:12;;;;;;;0.40;0.40;;;11.90;99.90;;;;;;5033419;28;20855;-69
2022/11/09 06:07:38;;;;;;;1.80;1.03;;;11.90;99.90;;;;;;5033622;28;20624;-68
2022/11/09 06:10:04;;;;;;;0.40;0.40;;;12.00;99.90;;;;;;5033213;28;20198;-68
2022/11/09 06:12:30;;;;;;;0.87;0.87;;;12.00;99.90;;;;;;5033431;28;20574;-69
2022/11/09 06:14:55;;;;;;;1.13;1.13;;;11.90;99.90;;;;;;5033115;28;20658;-69
2022/11/09 06:17:21;;;;;;;0.50;0.50;;;11.90;99.90;;;;;;5033232;28;20194;-71
2022/11/09 06:19:46;;;;;;;0.43;0.43;;;12.00;99.90;;;;;;5033160;28;20187;-70
2022/11/09 06:22:12;;;;;;;1.63;1.13;;;12.00;99.90;;;;;;5033120;28;20171;-70
2022/11/09 06:24:38;;;;;;;0.43;0.43;;;12.00;99.90;;;;;;5031887;28;20175;-70
2022/11/09 06:27:04;;;;;;;0.30;0.30;;;12.00;99.90;;;;;;5032889;28;20175;-68
2022/11/09 06:29:29;;;;;;;0.40;0.40;;;12.10;99.90;;;;;;5033499;28;20282;-67
2022/11/09 06:31:55;;;;;;;0.40;0.40;;;12.40;99.90;;;;;;5033376;28;20407;-68
2022/11/09 06:34:21;;;;;;;0.77;0.77;;;12.80;99.90;;;;;;5033060;28;20177;-67
2022/11/09 06:36:46;;;;;;;1.33;1.33;;;13.30;99.90;;;;;;5033181;28;20269;-68
2022/11/09 06:39:12;;;;;;;0.87;0.80;;;13.70;99.90;;;;;;5032885;28;20233;-70
2022/11/09 06:41:38;;;;;;;0.50;0.50;;;13.90;99.90;;;;;;5032989;28;20175;-70
2022/11/09 06:44:06;;;;;;;0.90;0.90;;;13.80;99.90;;;;;;5014925;28;20273;-70
2022/11/09 06:46:33;;;;;;;0.93;0.93;;;13.70;99.90;;;;;;5032982;28;20228;-71
2022/11/09 06:48:58;;;;;;;1.00;1.00;;;13.50;99.90;;;;;;5032806;28;20429;-71
2022/11/09 06:51:24;;;;;;;0.90;0.90;;;13.20;99.90;;;;;;5033221;28;20409;-71
2022/11/09 06:53:50;;;;;;;1.53;1.40;;;12.90;99.90;;;;;;5032775;28;20175;-70
2022/11/09 06:56:16;;;;;;;0.73;0.73;;;12.80;99.90;;;;;;5034054;28;20419;-70
2022/11/09 06:58:42;;;;;;;0.80;0.80;;;12.80;99.90;;;;;;5036346;28;20256;-70
2022/11/09 07:01:10;;;;;;;3.40;0.97;;;12.70;99.90;;;;;;5036485;28;20168;-71
2022/11/09 07:03:36;;;;;;;0.40;0.40;;;12.70;99.90;;;;;;5036143;28;20253;-71
2022/11/09 07:06:07;;;;;;;0.50;0.50;;;12.60;99.90;;;;;;5036492;28;20409;-71
2022/11/09 07:08:34;;;;;;;0.50;0.50;;;12.40;99.90;;;;;;5036381;28;20570;-70
2022/11/09 07:11:08;;;;;;;0.40;0.40;;;12.40;99.90;;;;;;5036439;28;20406;-69
2022/11/09 07:13:34;;;;;;;0.83;0.83;;;12.40;99.90;;;;;;5036093;28;20432;-70
2022/11/09 07:16:00;;;;;;;0.30;0.30;;;12.40;99.90;;;;;;5035941;28;20444;-70
2022/11/09 07:18:25;;;;;;;0.73;0.73;;;12.40;99.90;;;;;;5036503;28;20214;-70
2022/11/09 07:20:51;;;;;;;0.50;0.50;;;12.50;99.90;;;;;;5036875;28;20189;-69
2022/11/09 07:23:17;;;;;;;0.50;0.50;;;12.50;99.90;;;;;;5036115;28;20771;-69
2022/11/09 07:25:43;;;;;;;3.77;1.10;;;12.50;99.90;;;;;;5036195;28;20502;-69
2022/11/09 07:28:11;;;;;;;1.60;1.23;;;12.50;99.90;;;;;;5036002;28;20516;-69
2022/11/09 07:30:38;;;;;;;0.93;0.83;;;12.50;99.90;;;;;;5036360;28;20201;-70
2022/11/09 07:33:14;;;;;;;1.63;1.53;;;12.50;99.90;;;;;;5036130;28;20956;-69
2022/11/09 07:35:40;;;;;;;0.40;0.40;;;12.40;99.90;;;;;;5036246;28;20428;-69
2022/11/09 07:38:06;;;;;;;1.00;1.00;;;12.40;99.90;;;;;;5035518;28;20469;-70
2022/11/09 07:40:32;;;;;;;0.60;0.60;;;12.40;99.90;;;;;;5036016;28;20746;-70
2022/11/09 07:43:03;;;;;;;0.40;0.40;;;12.30;99.90;;;;;;5035816;28;20402;-71
2022/11/09 07:45:30;;;;;;;0.40;0.40;;;12.40;99.90;;;;;;5035641;28;20608;-69
2022/11/09 07:48:02;;;;;;;0.50;0.50;;;12.30;99.90;;;;;;5036121;28;20735;-70
2022/11/09 07:50:29;;;;;;;0.60;0.60;;;12.30;99.90;;;;;;5035662;28;20393;-69
2022/11/09 07:52:55;;;;;;;0.50;0.50;;;12.30;99.90;;;;;;5035439;28;20455;-69
2022/11/09 07:55:21;;;;;;;0.73;0.73;;;12.20;99.90;;;;;;5035487;28;20475;-68
2022/11/09 07:57:47;;;;;;;0.50;0.50;;;12.20;99.90;;;;;;5035571;28;20796;-68
2022/11/09 08:00:13;;;;;;;1.07;0.70;;;12.10;99.90;;;;;;5035620;28;20412;-69
2022/11/09 08:02:39;;;;;;;0.67;0.67;;;12.20;99.90;;;;;;5035355;28;20688;-68
2022/11/09 08:05:06;;;;;;;0.80;0.80;;;12.20;99.90;;;;;;5017441;28;20417;-70
2022/11/09 08:07:33;;;;;;;1.37;1.20;;;12.10;99.90;;;;;;5035097;28;20175;-68
2022/11/09 08:09:59;;;;;;;0.50;0.50;;;12.10;99.90;;;;;;5035473;28;20947;-70
2022/11/09 08:12:24;;;;;;;0.80;0.80;;;12.10;99.90;;;;;;5035626;28;20412;-70
2022/11/09 08:14:50;;;;;;;0.70;0.70;;;12.30;99.90;;;;;;5035045;28;20884;-69
2022/11/09 08:17:15;;;;;;;0.93;0.93;;;12.30;99.90;;;;;;5035623;28;20237;-69
2022/11/09 08:19:41;;;;;;;1.10;1.03;;;12.40;99.90;;;;;;5035055;28;20272;-69
2022/11/09 08:22:07;;;;;;;1.60;1.50;;;12.30;99.90;;;;;;5035162;28;20641;-69
2022/11/09 08:24:32;;;;;;;2.20;0.60;;;12.30;99.90;;;;;;5035082;28;20167;-68
2022/11/09 08:26:58;;;;;;;0.47;0.47;;;12.20;99.90;;;;;;5035283;28;20167;-69
2022/11/09 08:29:23;;;;;;;0.87;0.87;;;12.20;99.90;;;;;;5035345;28;20197;-70
2022/11/09 08:31:50;;;;;;;1.20;1.17;;;12.20;99.90;;;;;;5035461;28;20170;-70
2022/11/09 08:34:16;;;;;;;1.03;0.90;;;12.20;99.90;;;;;;5016584;28;20526;-67
2022/11/09 08:36:42;;;;;;;0.40;0.40;;;12.30;99.90;;;;;;5034098;28;20882;-69
2022/11/09 08:39:08;;;;;;;0.80;0.80;;;12.30;99.90;;;;;;5034742;28;20449;-69
2022/11/09 08:41:34;;;;;;;0.60;0.57;;;12.30;99.90;;;;;;5034426;28;20401;-68
2022/11/09 08:44:00;;;;;;;4.27;2.33;;;12.40;99.90;;;;;;5034403;28;20410;-67
2022/11/09 08:46:26;;;;;;;1.23;1.23;;;12.40;99.90;;;;;;5035122;28;20401;-69
2022/11/09 08:48:51;;;;;;;1.90;1.60;;;12.40;99.90;;;;;;5034886;28;20533;-70
2022/11/09 08:51:17;;;;;;;0.70;0.70;;;12.40;99.90;;;;;;5034577;28;20182;-68
2022/11/09 08:53:43;;;;;;;0.63;0.63;;;12.40;99.90;;;;;;5034233;28;20174;-69
2022/11/09 08:56:09;;;;;;;0.50;0.50;;;12.50;99.90;;;;;;5034628;28;20526;-69
2022/11/09 08:58:36;;;;;;;0.40;0.40;;;12.50;99.90;;;;;;5034437;28;20205;-67
2022/11/09 09:01:06;;;;;;;1.57;1.47;;;12.50;99.90;;;;;;5034900;28;20427;-68
2022/11/09 09:03:31;;;;;;;0.60;0.60;;;12.60;99.90;;;;;;5034478;28;20409;-68
2022/11/09 09:05:57;;;;;;;1.87;1.77;;;12.70;99.90;;;;;;5034500;28;20415;-67
2022/11/09 09:08:24;;;;;;;0.53;0.53;;;12.80;99.90;;;;;;5034325;28;20201;-68
2022/11/09 09:10:49;;;;;;;0.97;0.97;;;13.00;99.90;;;;;;5034554;28;20228;-69
2022/11/09 09:13:17;;;;;;;0.60;0.60;;;13.10;99.90;;;;;;5034102;28;20406;-67
2022/11/09 09:15:43;;;;;;;0.50;0.50;;;13.00;99.90;;;;;;5015250;28;20643;-68
2022/11/09 09:18:09;;;;;;;1.57;1.57;;;13.10;99.90;;;;;;5033488;28;20460;-69
2022/11/09 09:20:34;;;;;;;1.00;1.00;;;13.10;99.90;;;;;;5032366;28;20198;-68
2022/11/09 09:23:00;;;;;;;2.00;1.80;;;13.20;99.90;;;;;;5033337;28;20169;-67
2022/11/09 09:25:26;;;;;;;0.63;0.63;;;13.50;99.90;;;;;;5032916;28;20181;-68
2022/11/09 09:27:52;;;;;;;2.20;2.00;;;13.60;99.90;;;;;;5033765;28;20608;-69
2022/11/09 09:30:18;;;;;;;2.50;1.17;;;13.70;99.90;;;;;;5033576;28;20453;-68
2022/11/09 09:32:43;;;;;;;0.90;0.90;;;13.70;99.90;;;;;;5033642;28;20183;-69
2022/11/09 09:35:09;;;;;;;1.13;1.13;;;13.60;99.90;;;;;;5016234;28;20209;-68
2022/11/09 09:37:35;;;;;;;0.90;0.90;;;13.50;99.90;;;;;;5033846;28;20663;-69
2022/11/09 09:40:01;;;;;;;0.40;0.40;;;13.50;99.90;;;;;;5033267;28;20564;-69
2022/11/09 09:42:36;;;;;;;0.57;0.57;;;13.50;99.90;;;;;;5034102;28;20402;-69
2022/11/09 09:45:16;;;;;;;0.50;0.50;;;13.50;99.90;;;;;;5033245;28;20173;-69
2022/11/09 09:47:58;;;;;;;0.60;0.60;;;13.60;99.90;;;;;;5033722;28;20441;-68
2022/11/09 09:50:29;;;;;;;0.70;0.70;;;13.60;99.90;;;;;;5033638;28;20759;-69
2022/11/09 09:53:21;;;;;;;0.40;0.40;;;13.50;99.90;;;;;;5033493;28;20512;-69
2022/11/09 09:55:52;;;;;;;0.67;0.67;;;13.50;99.90;;;;;;5032996;28;20496;-69
2022/11/09 09:58:30;;;;;;;0.40;0.40;;;13.50;99.90;;;;;;5033570;28;20542;-69
2022/11/09 10:01:06;;;;;;;1.53;1.10;;;13.50;99.90;;;;;;5034091;28;20745;-69
2022/11/09 10:03:31;;;;;;;0.60;0.60;;;13.50;99.90;;;;;;5033537;28;20423;-69
2022/11/09 10:06:29;;;;;;;0.30;0.30;;;13.50;99.90;;;;;;5033762;28;20406;-69
2022/11/09 10:09:16;;;;;;;6.30;0.80;;;13.40;99.90;;;;;;5033205;28;20197;-69
2022/11/09 10:12:02;;;;;;;0.97;0.87;;;13.40;99.90;;;;;;5033312;28;20397;-69
2022/11/09 10:14:48;;;;;;;0.30;0.30;;;13.30;99.90;;;;;;5033087;28;20466;-69
2022/11/09 10:17:25;;;;;;;0.53;0.47;;;13.30;99.90;;;;;;5033702;28;20449;-68
2022/11/09 10:19:59;;;;;;;0.47;0.47;;;13.10;99.90;;;;;;5016092;28;20441;-69
2022/11/09 10:22:30;;;;;;;0.57;0.57;;;13.10;99.90;;;;;;5033925;28;20413;-68
2022/11/09 10:25:13;;;;;;;0.40;0.40;;;13.00;99.90;;;;;;5033144;28;20416;-69
2022/11/09 10:27:51;;;;;;;1.70;1.60;;;13.00;99.90;;;;;;5033576;28;20416;-69
2022/11/09 10:30:19;;;;;;;0.90;0.90;;;13.10;99.90;;;;;;5034155;28;20428;-68
2022/11/09 10:32:49;;;;;;;0.30;0.30;;;13.10;99.90;;;;;;5037472;28;20440;-69
2022/11/09 10:35:32;;;;;;;0.50;0.50;;;13.20;99.90;;;;;;5019300;28;20420;-68
2022/11/09 10:37:57;;;;;;;0.30;0.30;;;13.60;99.90;;;;;;5036815;28;20917;-69
2022/11/09 10:40:44;;;;;;;0.40;0.40;;;13.50;99.90;;;;;;5036998;28;20449;-69
2022/11/09 10:43:12;;;;;;;0.40;0.40;;;13.60;99.90;;;;;;5037023;28;20182;-69
2022/11/09 10:45:41;;;;;;;0.30;0.30;;;13.60;99.90;;;;;;5036743;28;20402;-68
2022/11/09 10:48:08;;;;;;;0.30;0.30;;;13.50;99.90;;;;;;5036981;28;20410;-69
2022/11/09 10:50:45;;;;;;;0.40;0.40;;;13.60;99.90;;;;;;5036670;28;20424;-69
2022/11/09 10:53:27;;;;;;;0.30;0.30;;;13.60;99.90;;;;;;5036638;28;20439;-68
2022/11/09 10:56:04;;;;;;;0.40;0.40;;;13.60;99.90;;;;;;5036719;28;20401;-69
2022/11/09 10:58:37;;;;;;;0.60;0.60;;;13.60;99.90;;;;;;5036253;28;20830;-69
2022/11/09 11:01:04;;;;;;;0.73;0.70;;;13.70;99.90;;;;;;5036659;28;20505;-69
2022/11/09 11:03:35;;;;;;;0.50;0.50;;;13.80;99.90;;;;;;5036291;28;20409;-69
2022/11/09 11:06:01;;;;;;;0.30;0.30;;;13.80;99.90;;;;;;5036402;28;20405;-69
2022/11/09 11:08:30;;;;;;;0.47;0.43;;;13.90;99.90;;;;;;5036309;28;20501;-68
2022/11/09 11:11:27;;;;;;;0.70;0.67;;;14.00;99.90;;;;;;5036333;28;20178;-69
2022/11/09 11:14:32;;;;;;;1.07;0.50;;;14.10;99.90;;;;;;5036045;28;20415;-69
2022/11/09 11:16:58;;;;;;;0.43;0.43;;;14.00;99.90;;;;;;5024410;28;20428;-69
2022/11/09 11:19:43;;;;;;;0.50;0.50;;;14.10;99.90;;;;;;5036213;28;20993;-68
2022/11/09 11:22:17;;;;;;;0.43;0.43;;;14.10;99.90;;;;;;5018475;28;20644;-69
2022/11/09 11:24:59;;;;;;;0.40;0.40;;;14.00;99.90;;;;;;5035858;28;20455;-69
2022/11/09 11:27:39;;;;;;;2.97;0.57;;;14.10;99.90;;;;;;5036378;28;20407;-68
2022/11/09 11:30:15;;;;;;;0.60;0.60;;;14.10;99.90;;;;;;5036585;28;20460;-67
2022/11/09 11:32:41;;;;;;;0.63;0.63;;;14.30;99.90;;;;;;5036323;28;20414;-67
2022/11/09 11:35:26;;;;;;;0.30;0.30;;;14.50;99.90;;;;;;5036500;28;20948;-67
2022/11/09 11:38:10;;;;;;;0.83;0.83;;;14.80;99.90;;;;;;5017646;28;20544;-69
2022/11/09 11:40:44;;;;;;;0.70;0.70;;;15.10;99.90;;;;;;5036171;28;20404;-68
2022/11/09 11:43:36;;;;;;;0.33;0.33;;;15.00;99.80;;;;;;5034818;28;20417;-69
2022/11/09 11:46:09;;;;;;;0.60;0.60;;;15.10;99.80;;;;;;5018007;28;20414;-68
2022/11/09 11:48:53;;;;;;;0.83;0.40;;;15.20;99.90;;;;;;5035577;28;20425;-67
2022/11/09 11:51:48;;;;;;;0.40;0.40;;;15.10;99.90;;;;;;5035908;28;20413;-69
2022/11/09 11:54:40;;;;;;;1.27;0.70;;;14.90;99.90;;;;;;5035489;28;20878;-67
2022/11/09 11:57:11;;;;;;;0.40;0.40;;;14.80;99.90;;;;;;5004775;28;20545;-69
2022/11/09 11:59:37;;;;;;;0.50;0.50;;;14.80;99.90;;;;;;5035328;28;20803;-69
2022/11/09 12:02:34;;;;;;;0.40;0.40;;;14.80;99.90;;;;;;5035383;28;20409;-70
2022/11/09 12:05:34;;;;;;;1.37;0.50;;;14.80;99.90;;;;;;5035292;28;20182;-70
2022/11/09 12:08:11;;;;;;;0.40;0.40;;;14.80;99.90;;;;;;5035719;28;20421;-70
2022/11/09 12:10:42;;;;;;;0.43;0.43;;;14.80;99.90;;;;;;5035844;28;20465;-70
2022/11/09 12:13:23;;;;;;;0.40;0.40;;;14.80;99.90;;;;;;5035002;28;20762;-70
2022/11/09 12:16:02;;;;;;;0.50;0.50;;;14.80;99.90;;;;;;5035436;28;20452;-69
2022/11/09 12:18:53;;;;;;;0.40;0.40;;;14.60;99.90;;;;;;5035179;28;20458;-69
2022/11/09 12:21:55;;;;;;;2.67;0.87;;;14.50;99.90;;;;;;5035032;28;20407;-70
2022/11/09 12:24:54;;;;;;;0.40;0.40;;;14.50;99.90;;;;;;5035155;28;20407;-70
2022/11/09 12:27:49;;;;;;;0.43;0.43;;;14.40;99.90;;;;;;5035503;28;20456;-69
2022/11/09 12:30:19;;;;;;;0.40;0.40;;;14.40;99.90;;;;;;5035167;28;20390;-69
2022/11/09 12:33:01;;;;;;;0.30;0.30;;;14.50;99.90;;;;;;5035256;28;20410;-71
2022/11/09 12:35:54;;;;;;;0.30;0.30;;;14.50;99.90;;;;;;5035182;28;20405;-69
2022/11/09 12:38:51;;;;;;;0.40;0.40;;;14.40;99.90;;;;;;5034627;28;20981;-69
2022/11/09 12:41:21;;;;;;;0.40;0.40;;;14.30;99.90;;;;;;5035024;28;20842;-70
2022/11/09 12:44:08;;;;;;;1.17;0.70;;;14.20;99.90;;;;;;5034575;28;20411;-69
2022/11/09 12:47:00;;;;;;;0.60;0.60;;;14.20;99.90;;;;;;5034646;28;20505;-70
2022/11/09 12:49:31;;;;;;;0.40;0.40;;;14.20;99.90;;;;;;5025698;28;20445;-69
2022/11/09 12:51:57;;;;;;;0.87;0.60;;;14.20;99.90;;;;;;5034950;28;20869;-70
2022/11/09 12:54:24;;;;;;;0.40;0.40;;;14.20;99.90;;;;;;5033302;28;20467;-70
2022/11/09 12:57:04;;;;;;;1.10;1.10;;;14.10;99.90;;;;;;5034408;28;20413;-70
2022/11/09 12:59:29;;;;;;;0.53;0.53;;;14.10;99.90;;;;;;5034598;28;20433;-69
2022/11/09 13:01:58;;;;;;;0.57;0.50;;;14.00;99.90;;;;;;5034320;28;20424;-70
2022/11/09 13:04:24;;;;;;;0.40;0.40;;;13.80;99.90;;;;;;5033969;28;20178;-69